createdAt,value
2019-05-20T00:03:33.832Z,5.33
2019-05-20T00:07:50.389Z,5.27
2019-05-20T00:12:06.998Z,7.30
2019-05-20T00:16:23.584Z,5.87
2019-05-20T00:20:40.038Z,6.10
2019-05-20T00:24:56.569Z,7.10
2019-05-20T00:29:12.994Z,8.23
2019-05-20T00:33:29.424Z,6.30
2019-05-20T00:37:45.978Z,5.93
2019-05-20T00:42:02.756Z,5.20
2019-05-20T00:46:19.298Z,5.13
2019-05-20T00:50:35.815Z,5.90
2019-05-20T00:54:52.361Z,6.63
2019-05-20T00:59:09.254Z,13.30
2019-05-20T01:03:25.718Z,8.40
2019-05-20T01:07:42.182Z,7.93
2019-05-20T01:11:58.698Z,8.60
2019-05-20T01:16:15.124Z,7.67
2019-05-20T01:20:31.620Z,7.20
2019-05-20T01:24:48.351Z,7.70
2019-05-20T01:29:04.768Z,6.63
2019-05-20T01:33:21.204Z,5.53
2019-05-20T01:37:37.674Z,7.50
2019-05-20T01:41:54.107Z,7.23
2019-05-20T01:46:10.937Z,6.37
2019-05-20T01:50:27.716Z,7.83
2019-05-20T01:54:44.384Z,7.00
2019-05-20T01:59:00.994Z,7.43
2019-05-20T02:03:31.022Z,5.57
2019-05-20T02:07:36.455Z,6.03
2019-05-20T02:11:52.923Z,5.70
2019-05-20T02:16:10.796Z,6.07
2019-05-20T02:20:27.331Z,8.40
2019-05-20T02:24:43.878Z,7.40
2019-05-20T02:29:00.273Z,6.23
2019-05-20T02:33:16.801Z,6.10
2019-05-20T02:37:33.258Z,7.00
2019-05-20T02:41:49.702Z,8.23
2019-05-20T02:46:06.343Z,8.03
2019-05-20T02:50:22.780Z,8.20
2019-05-20T02:54:39.349Z,9.37
2019-05-20T02:58:55.989Z,6.90
2019-05-20T03:03:12.490Z,6.83
2019-05-20T03:07:28.927Z,7.07
2019-05-20T03:11:45.414Z,6.40
2019-05-20T03:16:01.938Z,6.40
2019-05-20T03:20:18.356Z,5.33
2019-05-20T03:24:34.952Z,5.27
2019-05-20T03:28:52.598Z,7.50
2019-05-20T03:33:09.518Z,5.83
2019-05-20T03:37:26.062Z,8.47
2019-05-20T03:41:43.228Z,7.00
2019-05-20T03:45:59.871Z,10.17
2019-05-20T03:50:16.794Z,8.77
2019-05-20T03:54:34.238Z,6.47
2019-05-20T03:58:51.428Z,5.83
2019-05-20T04:03:08.129Z,10.23
2019-05-20T04:07:24.862Z,7.77
2019-05-20T04:11:41.373Z,7.53
2019-05-20T04:15:58.677Z,6.23
2019-05-20T04:20:16.445Z,8.03
2019-05-20T04:24:32.941Z,6.50
2019-05-20T04:28:49.486Z,8.07
2019-05-20T04:33:06.114Z,8.50
2019-05-20T04:37:22.641Z,9.30
2019-05-20T04:41:39.252Z,11.17
2019-05-20T04:45:56.166Z,8.27
2019-05-20T04:50:14.610Z,11.97
2019-05-20T04:54:31.404Z,9.40
2019-05-20T04:58:47.977Z,9.40
2019-05-20T05:03:04.445Z,7.97
2019-05-20T05:07:21.001Z,10.90
2019-05-20T05:11:37.543Z,8.93
2019-05-20T05:15:54.203Z,7.10
2019-05-20T05:20:18.156Z,7.93
2019-05-20T05:24:29.795Z,8.73
2019-05-20T05:28:46.925Z,6.03
2019-05-20T05:33:03.561Z,9.17
2019-05-20T05:37:20.062Z,12.97
2019-05-20T05:41:36.893Z,11.50
2019-05-20T05:45:53.738Z,7.83
2019-05-20T05:50:10.999Z,12.53
2019-05-20T05:54:27.767Z,14.17
2019-05-20T05:58:44.418Z,10.10
2019-05-20T06:03:00.852Z,13.50
2019-05-20T06:07:17.342Z,12.53
2019-05-20T06:11:33.795Z,12.47
2019-05-20T06:15:50.280Z,11.67
2019-05-20T06:20:08.770Z,10.00
2019-05-20T06:24:25.259Z,11.90
2019-05-20T06:28:41.950Z,10.63
2019-05-20T06:32:58.396Z,15.20
2019-05-20T06:37:22.902Z,10.43
2019-05-20T06:41:40.383Z,11.63
2019-05-20T06:45:56.914Z,11.23
2019-05-20T06:50:13.771Z,12.30
2019-05-20T06:54:30.289Z,12.97
2019-05-20T06:58:46.960Z,11.03
2019-05-20T07:03:04.422Z,14.70
2019-05-20T07:07:21.598Z,11.33
2019-05-20T07:11:38.498Z,14.63
2019-05-20T07:15:55.042Z,15.07
2019-05-20T07:20:11.973Z,18.00
2019-05-20T07:24:28.555Z,17.83
2019-05-20T07:28:45.503Z,16.60
2019-05-20T07:33:01.963Z,16.53
2019-05-20T07:37:18.706Z,15.73
2019-05-20T07:41:35.153Z,17.97
2019-05-20T07:45:51.767Z,14.77
2019-05-20T07:50:09.614Z,16.80
2019-05-20T07:54:26.590Z,16.03
2019-05-20T07:58:49.718Z,18.50
2019-05-20T08:03:06.323Z,16.50
2019-05-20T08:07:29.858Z,17.90
2019-05-20T08:11:41.888Z,16.10
2019-05-20T08:15:58.346Z,19.53
2019-05-20T08:20:15.483Z,17.07
2019-05-20T08:24:32.064Z,18.07
2019-05-20T08:28:48.497Z,17.53
2019-05-20T08:33:05.597Z,17.40
2019-05-20T08:37:22.017Z,16.57
2019-05-20T08:41:38.562Z,21.50
2019-05-20T08:45:55.499Z,16.73
2019-05-20T08:50:16.211Z,16.13
2019-05-20T08:54:30.734Z,18.00
2019-05-20T08:58:47.528Z,18.03
2019-05-20T09:03:04.143Z,16.63
2019-05-20T09:07:21.316Z,14.17
2019-05-20T09:11:38.354Z,22.67
2019-05-20T09:15:54.776Z,20.77
2019-05-20T09:20:13.302Z,19.67
2019-05-20T09:24:29.896Z,18.80
2019-05-20T09:28:46.525Z,21.13
2019-05-20T09:33:03.573Z,18.33
2019-05-20T09:37:20.224Z,16.07
2019-05-20T09:41:36.659Z,18.57
2019-05-20T09:46:06.451Z,18.00
2019-05-20T09:50:12.176Z,18.37
2019-05-20T09:54:28.641Z,19.30
2019-05-20T09:58:45.124Z,18.13
2019-05-20T10:03:01.680Z,16.83
2019-05-20T10:07:18.174Z,19.93
2019-05-20T10:11:34.991Z,16.63
2019-05-20T10:15:51.464Z,19.07
2019-05-20T10:20:08.876Z,17.97
2019-05-20T10:24:25.304Z,18.40
2019-05-20T10:28:46.483Z,20.57
2019-05-20T10:33:00.232Z,17.00
2019-05-20T10:37:17.095Z,17.67
2019-05-20T10:41:33.591Z,14.90
2019-05-20T10:45:50.018Z,12.17
2019-05-20T10:50:08.351Z,20.63
2019-05-20T10:54:24.839Z,16.37
2019-05-20T10:58:41.574Z,17.93
2019-05-20T11:02:58.132Z,14.27
2019-05-20T11:07:14.912Z,15.90
2019-05-20T11:11:31.362Z,15.37
2019-05-20T11:15:47.880Z,18.20
2019-05-20T11:20:07.254Z,19.70
2019-05-20T11:24:23.738Z,19.30
2019-05-20T11:28:40.184Z,14.60
2019-05-20T11:32:56.657Z,16.77
2019-05-20T11:37:13.493Z,14.63
2019-05-20T11:41:52.110Z,14.67
2019-05-20T11:45:48.725Z,12.60
2019-05-20T11:50:06.672Z,14.83
2019-05-20T11:54:23.164Z,14.03
2019-05-20T11:58:39.668Z,14.60
2019-05-20T12:02:56.079Z,12.70
2019-05-20T12:07:12.547Z,11.30
2019-05-20T12:11:29.138Z,11.33
2019-05-20T12:15:46.027Z,9.63
2019-05-20T12:20:07.072Z,10.80
2019-05-20T12:24:24.177Z,8.80
2019-05-20T12:28:41.000Z,10.03
2019-05-20T12:33:17.204Z,13.30
2019-05-20T12:37:16.089Z,15.93
2019-05-20T12:41:32.723Z,18.30
2019-05-20T12:45:49.155Z,18.70
2019-05-20T12:50:06.657Z,22.70
2019-05-20T12:54:23.132Z,22.90
2019-05-20T12:58:40.254Z,20.13
2019-05-20T13:02:57.329Z,22.13
2019-05-20T13:07:13.850Z,21.67
2019-05-20T13:11:30.654Z,22.97
2019-05-20T13:15:47.493Z,25.03
2019-05-20T13:20:06.296Z,21.57
2019-05-20T13:24:22.774Z,27.03
2019-05-20T13:28:39.392Z,22.77
2019-05-20T13:32:56.214Z,26.67
2019-05-20T13:37:12.660Z,20.43
2019-05-20T13:41:29.104Z,32.07
2019-05-20T13:45:48.236Z,19.60
2019-05-20T13:50:07.643Z,19.70
2019-05-20T13:54:24.659Z,18.53
2019-05-20T13:58:41.249Z,22.73
2019-05-20T14:02:57.756Z,22.30
2019-05-20T14:07:14.491Z,18.47
2019-05-20T14:11:34.544Z,17.27
2019-05-20T14:15:49.876Z,14.00
2019-05-20T14:20:06.741Z,13.00
2019-05-20T14:24:23.240Z,12.67
2019-05-20T14:28:39.736Z,12.68
2019-05-20T14:32:56.228Z,10.63
2019-05-20T14:37:12.738Z,10.68
2019-05-20T14:41:29.308Z,11.33
2019-05-20T14:45:45.812Z,12.03
2019-05-20T14:50:06.860Z,11.60
2019-05-20T14:54:23.423Z,11.90
2019-05-20T14:58:40.349Z,12.40
2019-05-20T15:02:57.277Z,15.17
2019-05-20T15:07:28.507Z,11.13
2019-05-20T15:11:38.328Z,10.63
2019-05-20T15:15:51.808Z,14.70
2019-05-20T15:20:09.047Z,11.60
2019-05-20T15:24:25.553Z,9.47
2019-05-20T15:28:42.023Z,10.77
2019-05-20T15:32:58.521Z,14.90
2019-05-20T15:37:15.195Z,17.87
2019-05-20T15:41:31.768Z,18.23
2019-05-20T15:45:48.771Z,19.67
2019-05-20T15:50:09.693Z,17.30
2019-05-20T15:54:25.263Z,15.77
2019-05-20T15:58:41.766Z,25.50
2019-05-20T16:02:58.207Z,15.50
2019-05-20T16:07:14.677Z,14.47
2019-05-20T16:11:31.212Z,9.53
2019-05-20T16:15:47.865Z,8.53
2019-05-20T16:20:07.123Z,7.37
2019-05-20T16:24:24.391Z,7.93
2019-05-20T16:28:41.256Z,7.40
2019-05-20T16:32:57.734Z,6.27
2019-05-20T16:37:14.273Z,6.40
2019-05-20T16:41:31.061Z,7.10
2019-05-20T16:45:47.591Z,6.93
2019-05-20T16:50:05.620Z,8.17
2019-05-20T16:54:22.474Z,9.10
2019-05-20T16:58:39.047Z,10.40
2019-05-20T17:02:55.723Z,8.37
2019-05-20T17:07:12.534Z,8.47
2019-05-20T17:11:31.283Z,7.83
2019-05-20T17:15:47.886Z,7.07
2019-05-20T17:20:06.147Z,5.63
2019-05-20T17:24:22.986Z,4.53
2019-05-20T17:28:39.603Z,6.60
2019-05-20T17:32:58.040Z,5.50
2019-05-20T17:37:15.015Z,5.90
2019-05-20T17:41:31.649Z,4.70
2019-05-20T17:45:50.270Z,4.23
2019-05-20T17:50:07.644Z,4.10
2019-05-20T17:54:24.673Z,4.03
2019-05-20T17:58:41.330Z,4.70
2019-05-20T18:02:57.924Z,4.80
2019-05-20T18:07:14.875Z,4.00
2019-05-20T18:11:31.496Z,4.90
2019-05-20T18:15:48.085Z,5.43
2019-05-20T18:20:06.399Z,5.23
2019-05-20T18:24:22.976Z,5.17
2019-05-20T18:28:42.584Z,7.17
2019-05-20T18:33:01.852Z,6.70
2019-05-20T18:37:18.523Z,5.33
2019-05-20T18:41:37.585Z,7.30
2019-05-20T18:45:57.367Z,6.23
2019-05-20T18:50:17.010Z,6.43
2019-05-20T18:54:35.435Z,7.03
2019-05-20T18:58:53.340Z,5.50
2019-05-20T19:03:09.942Z,7.97
2019-05-20T19:07:26.448Z,5.73
2019-05-20T19:11:45.237Z,7.13
2019-05-20T19:16:01.875Z,6.50
2019-05-20T19:20:23.361Z,6.43
2019-05-20T19:24:39.973Z,5.95
2019-05-20T19:28:58.376Z,7.53
2019-05-20T19:33:16.951Z,5.27
2019-05-20T19:37:33.686Z,3.23
2019-05-20T19:41:50.230Z,4.50
2019-05-20T19:46:10.316Z,2.83
2019-05-20T19:50:27.050Z,2.90
2019-05-20T19:54:43.911Z,4.23
2019-05-20T19:59:00.992Z,3.07
2019-05-20T20:03:17.609Z,2.40
2019-05-20T20:07:34.183Z,2.30
2019-05-20T20:11:50.828Z,2.10
2019-05-20T20:16:07.814Z,2.17
2019-05-20T20:20:24.753Z,2.30
2019-05-20T20:24:41.418Z,3.13
2019-05-20T20:28:58.048Z,3.47
2019-05-20T20:33:16.015Z,3.60
2019-05-20T20:37:33.578Z,4.20
2019-05-20T20:41:51.149Z,3.87
2019-05-20T20:46:07.656Z,4.57
2019-05-20T20:50:24.848Z,5.87
2019-05-20T20:54:41.394Z,6.93
2019-05-20T20:58:58.358Z,5.57
2019-05-20T21:03:14.841Z,9.93
2019-05-20T21:07:31.272Z,7.77
2019-05-20T21:11:47.788Z,5.30
2019-05-20T21:16:04.211Z,5.03
2019-05-20T21:20:20.689Z,4.33
2019-05-20T21:24:37.143Z,4.00
2019-05-20T21:28:53.667Z,4.33
2019-05-20T21:33:10.152Z,4.27
2019-05-20T21:37:26.975Z,3.77
2019-05-20T21:41:43.514Z,3.47
2019-05-20T21:46:00.058Z,3.77
2019-05-20T21:50:16.632Z,7.80
2019-05-20T21:54:33.081Z,6.60
2019-05-20T21:58:49.815Z,5.87
2019-05-20T22:03:06.278Z,5.77
2019-05-20T22:07:23.114Z,6.90
2019-05-20T22:11:39.700Z,5.00
2019-05-20T22:15:56.126Z,7.87
2019-05-20T22:20:12.890Z,5.80
2019-05-20T22:24:29.370Z,9.67
2019-05-20T22:28:45.936Z,6.63
2019-05-20T22:33:02.470Z,6.73
2019-05-20T22:37:18.933Z,6.80
2019-05-20T22:41:35.362Z,6.70
2019-05-20T22:45:52.927Z,6.63
2019-05-20T22:50:09.824Z,9.20
2019-05-20T22:54:26.234Z,11.67
2019-05-20T22:58:42.684Z,7.53
2019-05-20T23:02:59.113Z,6.57
2019-05-20T23:07:15.531Z,5.57
2019-05-20T23:11:32.055Z,5.33
2019-05-20T23:15:48.506Z,7.77
2019-05-20T23:20:05.529Z,13.77
2019-05-20T23:24:21.965Z,19.03
2019-05-20T23:28:38.573Z,14.20
2019-05-20T23:32:55.379Z,11.07
2019-05-20T23:37:13.408Z,11.17
2019-05-20T23:41:29.861Z,11.07
2019-05-20T23:45:46.328Z,9.73
2019-05-20T23:50:03.879Z,9.57
2019-05-20T23:54:20.620Z,4.87
2019-05-20T23:58:37.095Z,4.53
